Deva — A8OK3 — position and weather

sailwx.info

Track history (hours):
 
Tides and Currents Weather Stations Pressure Air Temp Water Temp Dewpoint Dewpoint Depression Visibility Wind Speed Wind Dir Waves Ship Positions

Deva

Last reported at 2015-Jul-03 10:25 UTC. Time now 2015-Jul-04 03:28 UTC.
Position N 36°40' E 122°34'.

Length 259 m; draft 9.7 m.

Type: Ship (hazmat cat A). MMSI: 636013644.

Date/timePositionNaut miles runAvg speedWind from/ knotsBaromVisibWave heightAir tempDewpointWater temp
2015-Jul-03 10:25N 36°40' E 122°34'1211.8
2015-Jul-03 09:24N 36°46' E 122°46'134 6.3
2015-Jul-02 12:18N 38°54' E 121°56'5 6.9
2015-Jul-02 11:34N 38°49' E 121°53'1211.9
2015-Jul-02 10:34N 38°38' E 121°46'1312.7
2015-Jul-02 09:33N 38°28' E 121°37'1313.5
2015-Jul-02 08:33N 38°28' E 121°20'1413.6
2015-Jul-02 07:33N 38°30' E 121°02'1211.8
2015-Jul-02 06:33N 38°34' E 120°48'1212.2
2015-Jul-02 05:32N 38°36' E 120°32'1313.2
2015-Jul-02 04:34N 38°38' E 120°16'1312.9
2015-Jul-02 03:33N 38°39' E 119°60'1312.9
2015-Jul-02 02:33N 38°41' E 119°43'6813.2
2015-Jul-01 21:24N 38°50' E 118°17'1113.0
2015-Jul-01 20:32N 38°55' E 118°04'1212.2
2015-Jul-01 19:33N 38°58' E 117°49'2 2.1
2015-Jul-01 18:33N 38°59' E 117°46'0 0.0
2015-Jul-01 17:33N 38°59' E 117°46'0 0.0
2015-Jul-01 16:33N 38°59' E 117°46'0 0.0
2015-Jul-01 15:33N 38°59' E 117°46'0 0.0
2015-Jul-01 14:33N 38°59' E 117°46'0 0.0
2015-Jul-01 13:33N 38°59' E 117°46'0 0.0
2015-Jul-01 12:33N 38°59' E 117°46'0 0.0
2015-Jul-01 11:33N 38°59' E 117°46'0 0.0
2015-Jul-01 10:33N 38°59' E 117°46'0 0.0
2015-Jul-01 09:33N 38°59' E 117°46'0 0.0
2015-Jul-01 08:33N 38°59' E 117°46'0 0.0
2015-Jul-01 07:33N 38°59' E 117°46'0 0.4
2015-Jul-01 06:33N 38°58' E 117°47'1110.6
2015-Jul-01 05:33N 38°56' E 118°00'9 7.7
2015-Jul-01 04:25N 38°53' E 118°11'910.0
2015-Jul-01 03:33N 38°51' E 118°21'1313.1
2015-Jul-01 02:32N 38°49' E 118°38'1312.9
2015-Jul-01 01:32N 38°48' E 118°55'2912.7
2015-Jun-30 23:18N 38°45' E 119°31'2613.2
2015-Jun-30 21:18N 38°43' E 120°05'1013.2
2015-Jun-30 20:33N 38°42' E 120°18'1312.9
2015-Jun-30 19:33N 38°41' E 120°34'1111.4
2015-Jun-30 18:32N 38°39' E 120°49'10 9.9
2015-Jun-30 17:33N 38°34' E 120°59'1212.5
2015-Jun-30 16:34N 38°28' E 121°13'1312.7
2015-Jun-30 15:33N 38°22' E 121°27'1312.6
2015-Jun-30 14:33N 38°15' E 121°41'1312.7
2015-Jun-30 13:33N 38°09' E 121°55'1312.5
2015-Jun-30 12:33N 38°03' E 122°09'1312.6
2015-Jun-30 11:32N 37°56' E 122°23'1312.1
2015-Jun-30 10:29N 37°50' E 122°37'3711.5
2015-Jun-30 07:13N 37°19' E 123°03'40012.9
2015-Jun-29 00:10N 30°38' E 123°00'1013.2
2015-Jun-28 23:24N 30°28' E 123°00'3512.1
2015-Jun-28 20:29N 29°53' E 122°53'1211.7
2015-Jun-28 19:26N 29°41' E 122°50'31512.6
2015-Jun-27 18:22N 25°08' E 119°54'1514.7
2015-Jun-27 17:21N 24°58' E 119°42'3114.2
2015-Jun-27 15:12N 24°37' E 119°17'913.6
2015-Jun-27 14:31N 24°31' E 119°09'1513.1
2015-Jun-27 13:24N 24°21' E 118°58'2613.0
2015-Jun-27 11:26N 24°04' E 118°37'1213.0
2015-Jun-27 10:33N 23°56' E 118°27'1313.5
2015-Jun-27 09:34N 23°46' E 118°17'1413.9
2015-Jun-27 08:33N 23°37' E 118°06'1413.8
2015-Jun-27 07:33N 23°28' E 117°54'1313.1
2015-Jun-27 06:32N 23°19' E 117°43'6412.8
2015-Jun-27 01:30N 22°45' E 116°44'12213.6
2015-Jun-26 16:32N 22°09' E 114°38'1313.2
2015-Jun-26 15:33N 22°08' E 114°24'1311.8
2015-Jun-26 14:26N 22°12' E 114°10'8 9.3
2015-Jun-26 13:34N 22°19' E 114°06'1 1.5
2015-Jun-26 12:32N 22°20' E 114°08'0 0.0
2015-Jun-26 11:20N 22°20' E 114°08'0 0.0
2015-Jun-26 10:32N 22°20' E 114°08'0 0.0
2015-Jun-26 09:32N 22°20' E 114°08'0 0.0
2015-Jun-26 08:32N 22°20' E 114°08'0 0.0
2015-Jun-26 06:32N 22°20' E 114°08'0 0.0
2015-Jun-26 05:08N 22°20' E 114°08'0 0.1
2015-Jun-26 04:32N 22°20' E 114°08'14 6.7
2015-Jun-26 02:25N 22°09' E 114°18'7 7.0
2015-Jun-26 01:24N 22°05' E 114°24'  
Track history (hours):
 
Tides and Currents Weather Stations Pressure Air Temp Water Temp Dewpoint Dewpoint Depression Visibility Wind Speed Wind Dir Waves Ship Positions

Deva

Last reported at 2015-Jul-03 10:25 UTC. Time now 2015-Jul-04 03:28 UTC.
Position N 36°40' E 122°34'.

Length 259 m; draft 9.7 m.

Type: Ship (hazmat cat A). MMSI: 636013644.

Date/timePositionNaut miles runAvg speedWind from/ knotsBaromVisibWave heightAir tempDewpointWater temp
2015-Jul-03 10:25N 36°40' E 122°34'1211.8
2015-Jul-03 09:24N 36°46' E 122°46'134 6.3
2015-Jul-02 12:18N 38°54' E 121°56'5 6.9
2015-Jul-02 11:34N 38°49' E 121°53'1211.9
2015-Jul-02 10:34N 38°38' E 121°46'1312.7
2015-Jul-02 09:33N 38°28' E 121°37'1313.5
2015-Jul-02 08:33N 38°28' E 121°20'1413.6
2015-Jul-02 07:33N 38°30' E 121°02'1211.8
2015-Jul-02 06:33N 38°34' E 120°48'1212.2
2015-Jul-02 05:32N 38°36' E 120°32'1313.2
2015-Jul-02 04:34N 38°38' E 120°16'1312.9
2015-Jul-02 03:33N 38°39' E 119°60'1312.9
2015-Jul-02 02:33N 38°41' E 119°43'6813.2
2015-Jul-01 21:24N 38°50' E 118°17'1113.0
2015-Jul-01 20:32N 38°55' E 118°04'1212.2
2015-Jul-01 19:33N 38°58' E 117°49'2 2.1
2015-Jul-01 18:33N 38°59' E 117°46'0 0.0
2015-Jul-01 17:33N 38°59' E 117°46'0 0.0
2015-Jul-01 16:33N 38°59' E 117°46'0 0.0
2015-Jul-01 15:33N 38°59' E 117°46'0 0.0
2015-Jul-01 14:33N 38°59' E 117°46'0 0.0
2015-Jul-01 13:33N 38°59' E 117°46'0 0.0
2015-Jul-01 12:33N 38°59' E 117°46'0 0.0
2015-Jul-01 11:33N 38°59' E 117°46'0 0.0
2015-Jul-01 10:33N 38°59' E 117°46'0 0.0
2015-Jul-01 09:33N 38°59' E 117°46'0 0.0
2015-Jul-01 08:33N 38°59' E 117°46'0 0.0
2015-Jul-01 07:33N 38°59' E 117°46'0 0.4
2015-Jul-01 06:33N 38°58' E 117°47'1110.6
2015-Jul-01 05:33N 38°56' E 118°00'9 7.7
2015-Jul-01 04:25N 38°53' E 118°11'910.0
2015-Jul-01 03:33N 38°51' E 118°21'1313.1
2015-Jul-01 02:32N 38°49' E 118°38'1312.9
2015-Jul-01 01:32N 38°48' E 118°55'2912.7
2015-Jun-30 23:18N 38°45' E 119°31'2613.2
2015-Jun-30 21:18N 38°43' E 120°05'1013.2
2015-Jun-30 20:33N 38°42' E 120°18'1312.9
2015-Jun-30 19:33N 38°41' E 120°34'1111.4
2015-Jun-30 18:32N 38°39' E 120°49'10 9.9
2015-Jun-30 17:33N 38°34' E 120°59'1212.5
2015-Jun-30 16:34N 38°28' E 121°13'1312.7
2015-Jun-30 15:33N 38°22' E 121°27'1312.6
2015-Jun-30 14:33N 38°15' E 121°41'1312.7
2015-Jun-30 13:33N 38°09' E 121°55'1312.5
2015-Jun-30 12:33N 38°03' E 122°09'1312.6
2015-Jun-30 11:32N 37°56' E 122°23'1312.1
2015-Jun-30 10:29N 37°50' E 122°37'3711.5
2015-Jun-30 07:13N 37°19' E 123°03'40012.9
2015-Jun-29 00:10N 30°38' E 123°00'1013.2
2015-Jun-28 23:24N 30°28' E 123°00'3512.1
2015-Jun-28 20:29N 29°53' E 122°53'1211.7
2015-Jun-28 19:26N 29°41' E 122°50'31512.6
2015-Jun-27 18:22N 25°08' E 119°54'1514.7
2015-Jun-27 17:21N 24°58' E 119°42'3114.2
2015-Jun-27 15:12N 24°37' E 119°17'913.6
2015-Jun-27 14:31N 24°31' E 119°09'1513.1
2015-Jun-27 13:24N 24°21' E 118°58'2613.0
2015-Jun-27 11:26N 24°04' E 118°37'1213.0
2015-Jun-27 10:33N 23°56' E 118°27'1313.5
2015-Jun-27 09:34N 23°46' E 118°17'1413.9
2015-Jun-27 08:33N 23°37' E 118°06'1413.8
2015-Jun-27 07:33N 23°28' E 117°54'1313.1
2015-Jun-27 06:32N 23°19' E 117°43'6412.8
2015-Jun-27 01:30N 22°45' E 116°44'12213.6
2015-Jun-26 16:32N 22°09' E 114°38'1313.2
2015-Jun-26 15:33N 22°08' E 114°24'1311.8
2015-Jun-26 14:26N 22°12' E 114°10'8 9.3
2015-Jun-26 13:34N 22°19' E 114°06'1 1.5
2015-Jun-26 12:32N 22°20' E 114°08'0 0.0
2015-Jun-26 11:20N 22°20' E 114°08'0 0.0
2015-Jun-26 10:32N 22°20' E 114°08'0 0.0
2015-Jun-26 09:32N 22°20' E 114°08'0 0.0
2015-Jun-26 08:32N 22°20' E 114°08'0 0.0
2015-Jun-26 06:32N 22°20' E 114°08'0 0.0
2015-Jun-26 05:08N 22°20' E 114°08'0 0.1
2015-Jun-26 04:32N 22°20' E 114°08'14 6.7
2015-Jun-26 02:25N 22°09' E 114°18'7 7.0
2015-Jun-26 01:24N 22°05' E 114°24'  

Dump ship's entire track history